createdAt,value
2019-04-20T00:01:28.063Z,36.17
2019-04-20T00:03:55.583Z,38.03
2019-04-20T00:06:27.105Z,38.67
2019-04-20T00:09:04.982Z,37.27
2019-04-20T00:11:41.472Z,36.37
2019-04-20T00:14:07.064Z,37.50
2019-04-20T00:16:33.995Z,39.10
2019-04-20T00:19:05.454Z,33.13
2019-04-20T00:21:47.335Z,36.90
2019-04-20T00:24:23.424Z,34.90
2019-04-20T00:27:13.716Z,41.77
2019-04-20T00:29:40.494Z,35.87
2019-04-20T00:32:02.493Z,30.90
2019-04-20T00:34:31.601Z,40.73
2019-04-20T00:36:58.037Z,41.37
2019-04-20T00:39:28.338Z,37.07
2019-04-20T00:42:03.499Z,37.03
2019-04-20T00:44:36.007Z,43.23
2019-04-20T00:47:15.974Z,51.37
2019-04-20T00:49:48.276Z,44.03
2019-04-20T00:54:39.156Z,36.33
2019-04-20T00:57:20.394Z,40.53
2019-04-20T00:59:59.113Z,39.40
2019-04-20T01:02:25.816Z,39.00
2019-04-20T01:05:04.174Z,38.57
2019-04-20T01:07:34.712Z,37.90
2019-04-20T01:10:04.962Z,38.87
2019-04-20T01:12:38.785Z,33.97
2019-04-20T01:15:11.804Z,42.33
2019-04-20T01:17:41.755Z,34.07
2019-04-20T01:20:13.185Z,33.50
2019-04-20T01:22:51.474Z,34.17
2019-04-20T01:25:22.165Z,30.83
2019-04-20T01:28:06.751Z,33.87
2019-04-20T01:30:28.207Z,32.20
2019-04-20T01:33:03.495Z,30.80
2019-04-20T01:35:40.932Z,30.57
2019-04-20T01:38:12.390Z,29.57
2019-04-20T01:40:27.864Z,27.20
2019-04-20T01:42:59.419Z,29.07
2019-04-20T01:45:35.516Z,30.17
2019-04-20T01:48:03.013Z,31.30
2019-04-20T01:50:37.943Z,30.90
2019-04-20T01:53:16.471Z,28.70
2019-04-20T01:55:51.104Z,26.03
2019-04-20T01:58:36.396Z,27.83
2019-04-20T02:01:18.698Z,26.07
2019-04-20T02:04:00.336Z,28.80
2019-04-20T02:06:41.861Z,27.83
2019-04-20T02:09:11.913Z,27.83
2019-04-20T02:11:42.612Z,25.60
2019-04-20T02:14:11.956Z,26.40
2019-04-20T02:16:47.400Z,27.40
2019-04-20T02:19:26.649Z,26.13
2019-04-20T02:21:59.307Z,24.10
2019-04-20T02:24:17.874Z,26.77
2019-04-20T02:26:50.066Z,27.80
2019-04-20T02:29:43.053Z,21.87
2019-04-20T02:32:24.024Z,24.03
2019-04-20T02:40:39.773Z,20.83
2019-04-20T02:43:09.595Z,21.60
2019-04-20T02:50:44.107Z,22.50
2019-04-20T02:55:48.439Z,27.17
2019-04-20T02:58:18.696Z,22.47
2019-04-20T03:00:44.458Z,21.13
2019-04-20T03:03:03.238Z,18.67
2019-04-20T03:05:33.163Z,18.93
2019-04-20T03:08:08.953Z,18.97
2019-04-20T03:10:53.530Z,21.83
2019-04-20T03:13:18.321Z,22.37
2019-04-20T03:15:51.833Z,19.87
2019-04-20T03:18:23.119Z,22.43
2019-04-20T03:20:53.058Z,23.53
2019-04-20T03:23:30.046Z,19.63
2019-04-20T03:26:07.785Z,21.20
2019-04-20T03:28:51.106Z,20.03
2019-04-20T03:31:41.035Z,21.43
2019-04-20T03:34:41.679Z,19.13
2019-04-20T03:36:34.899Z,23.77
2019-04-20T03:38:57.339Z,23.63
2019-04-20T03:41:22.656Z,18.77
2019-04-20T03:43:45.600Z,14.97
2019-04-20T03:46:19.269Z,18.03
2019-04-20T03:49:04.510Z,20.20
2019-04-20T03:51:39.814Z,22.33
2019-04-20T03:54:16.955Z,20.17
2019-04-20T03:57:22.403Z,18.20
2019-04-20T04:00:01.805Z,23.83
2019-04-20T04:02:57.585Z,23.93
2019-04-20T04:05:23.585Z,26.17
2019-04-20T04:07:45.558Z,22.03
2019-04-20T04:10:24.944Z,23.90
2019-04-20T04:13:09.534Z,23.23
2019-04-20T04:15:44.770Z,22.67
2019-04-20T04:18:21.880Z,22.63
2019-04-20T04:20:56.565Z,25.73
2019-04-20T04:23:38.061Z,24.67
2019-04-20T04:26:08.624Z,22.57
2019-04-20T04:28:40.898Z,22.77
2019-04-20T04:31:11.910Z,25.13
2019-04-20T04:36:13.548Z,24.77
2019-04-20T04:38:54.640Z,23.50
2019-04-20T04:41:24.294Z,23.67
2019-04-20T04:44:00.640Z,25.87
2019-04-20T04:46:05.813Z,28.47
2019-04-20T04:48:41.100Z,27.50
2019-04-20T04:51:16.757Z,27.63
2019-04-20T04:53:51.108Z,33.17
2019-04-20T04:56:16.303Z,29.47
2019-04-20T04:58:44.610Z,28.13
2019-04-20T05:01:21.694Z,29.03
2019-04-20T05:04:19.093Z,25.97
2019-04-20T05:06:34.368Z,17.33
2019-04-20T05:09:00.214Z,21.23
2019-04-20T05:11:27.822Z,18.30
2019-04-20T05:14:03.599Z,16.43
2019-04-20T05:16:52.042Z,17.03
2019-04-20T05:19:23.436Z,15.63
2019-04-20T05:22:08.215Z,19.30
2019-04-20T05:24:48.449Z,15.07
2019-04-20T05:27:34.821Z,19.37
2019-04-20T05:29:44.775Z,18.10
2019-04-20T05:32:23.540Z,13.87
2019-04-20T05:35:12.062Z,17.60
2019-04-20T05:37:41.935Z,18.30
2019-04-20T05:40:20.576Z,21.37
2019-04-20T05:42:54.485Z,18.73
2019-04-20T05:45:22.010Z,13.83
2019-04-20T05:47:55.123Z,19.73
2019-04-20T05:50:28.920Z,14.33
2019-04-20T05:53:01.697Z,17.43
2019-04-20T05:55:35.961Z,17.00
2019-04-20T05:58:10.045Z,18.90
2019-04-20T06:00:40.577Z,16.10
2019-04-20T06:03:09.499Z,14.77
2019-04-20T06:05:45.881Z,14.50
2019-04-20T06:08:15.663Z,16.50
2019-04-20T06:10:45.580Z,16.03
2019-04-20T06:13:27.751Z,16.43
2019-04-20T06:16:38.360Z,16.53
2019-04-20T06:19:10.220Z,18.00
2019-04-20T06:21:41.736Z,14.57
2019-04-20T06:24:20.685Z,16.70
2019-04-20T06:26:53.662Z,19.80
2019-04-20T06:29:19.376Z,16.60
2019-04-20T06:31:53.482Z,19.93
2019-04-20T06:36:58.381Z,15.27
2019-04-20T06:39:40.654Z,19.43
2019-04-20T06:42:09.869Z,21.47
2019-04-20T06:44:50.851Z,15.13
2019-04-20T06:49:37.999Z,27.70
2019-04-20T06:52:32.575Z,22.03
2019-04-20T06:55:14.169Z,17.57
2019-04-20T06:57:50.763Z,14.10
2019-04-20T07:00:18.235Z,18.10
2019-04-20T07:03:04.750Z,15.23
2019-04-20T07:05:35.925Z,20.40
2019-04-20T07:08:06.985Z,19.03
2019-04-20T07:10:34.486Z,22.73
2019-04-20T07:12:55.287Z,18.47
2019-04-20T07:15:36.561Z,14.30
2019-04-20T07:18:18.638Z,20.37
2019-04-20T07:23:35.534Z,16.53
2019-04-20T07:26:06.648Z,14.20
2019-04-20T07:28:35.512Z,17.70
2019-04-20T07:31:03.739Z,15.10
2019-04-20T07:33:34.915Z,14.63
2019-04-20T07:36:05.925Z,13.47
2019-04-20T07:38:40.496Z,21.17
2019-04-20T07:41:08.954Z,14.60
2019-04-20T07:43:54.111Z,17.80
2019-04-20T07:46:21.901Z,15.10
2019-04-20T07:48:45.543Z,14.50
2019-04-20T07:51:06.886Z,16.00
2019-04-20T07:53:43.053Z,15.63
2019-04-20T07:56:25.606Z,14.23
2019-04-20T07:58:44.141Z,21.70
2019-04-20T08:01:45.426Z,14.23
2019-04-20T08:04:13.628Z,14.93
2019-04-20T08:06:42.168Z,18.73
2019-04-20T08:09:19.621Z,13.87
2019-04-20T08:12:04.883Z,15.57
2019-04-20T08:14:35.771Z,16.30
2019-04-20T08:17:14.214Z,13.93
2019-04-20T08:19:34.923Z,13.53
2019-04-20T08:22:09.494Z,11.77
2019-04-20T08:24:37.171Z,17.00
2019-04-20T08:27:00.329Z,24.10
2019-04-20T08:29:45.116Z,21.10
2019-04-20T08:32:56.696Z,13.57
2019-04-20T08:35:32.100Z,26.20
2019-04-20T08:38:35.013Z,17.47
2019-04-20T08:40:37.276Z,15.20
2019-04-20T08:43:20.101Z,9.17
2019-04-20T08:45:49.029Z,15.23
2019-04-20T08:48:18.918Z,13.50
2019-04-20T08:50:47.068Z,11.47
2019-04-20T08:55:45.051Z,10.27
2019-04-20T08:58:02.418Z,16.93
2019-04-20T09:00:39.652Z,12.27
2019-04-20T09:03:15.364Z,13.07
2019-04-20T09:05:50.000Z,9.63
2019-04-20T09:08:16.251Z,11.97
2019-04-20T09:11:01.505Z,12.77
2019-04-20T09:13:21.269Z,10.30
2019-04-20T09:15:44.718Z,11.27
2019-04-20T09:18:31.283Z,10.00
2019-04-20T09:21:01.535Z,10.43
2019-04-20T09:23:45.863Z,9.53
2019-04-20T09:26:24.692Z,9.00
2019-04-20T09:28:59.024Z,10.37
2019-04-20T09:31:35.806Z,14.90
2019-04-20T09:34:39.576Z,11.83
2019-04-20T09:37:29.616Z,10.17
2019-04-20T09:40:21.574Z,9.47
2019-04-20T09:43:06.550Z,12.20
2019-04-20T09:45:53.688Z,11.13
2019-04-20T09:48:31.308Z,13.53
2019-04-20T09:51:11.343Z,16.00
2019-04-20T09:53:36.002Z,12.00
2019-04-20T09:56:11.673Z,21.87
2019-04-20T09:58:52.991Z,30.13
2019-04-20T10:01:13.313Z,18.10
2019-04-20T10:03:31.257Z,13.10
2019-04-20T10:06:01.409Z,15.53
2019-04-20T10:08:34.919Z,14.00
2019-04-20T10:11:05.627Z,21.50
2019-04-20T10:13:36.337Z,6.80
2019-04-20T10:16:07.946Z,10.70
2019-04-20T10:18:42.507Z,14.90
2019-04-20T10:21:09.969Z,10.83
2019-04-20T10:23:40.695Z,11.27
2019-04-20T10:26:12.284Z,10.40
2019-04-20T10:28:43.633Z,9.50
2019-04-20T10:31:14.741Z,19.80
2019-04-20T10:33:45.924Z,11.47
2019-04-20T10:36:39.344Z,13.17
2019-04-20T10:39:11.045Z,11.20
2019-04-20T10:41:49.165Z,8.30
2019-04-20T10:44:14.593Z,10.57
2019-04-20T10:46:45.015Z,12.23
2019-04-20T10:49:15.465Z,7.90
2019-04-20T10:51:45.738Z,6.37
2019-04-20T10:54:16.400Z,8.57
2019-04-20T10:56:47.756Z,5.53
2019-04-20T10:59:19.332Z,8.83
2019-04-20T11:01:49.783Z,6.87
2019-04-20T11:04:20.907Z,10.90
2019-04-20T11:06:52.329Z,8.13
2019-04-20T11:09:22.751Z,6.10
2019-04-20T11:11:52.918Z,9.30
2019-04-20T11:14:29.759Z,6.37
2019-04-20T11:16:56.194Z,6.93
2019-04-20T11:19:27.415Z,4.50
2019-04-20T11:21:58.567Z,6.80
2019-04-20T11:24:30.171Z,8.60
2019-04-20T11:27:00.486Z,7.47
2019-04-20T11:29:31.901Z,4.57
2019-04-20T11:32:03.118Z,8.07
2019-04-20T11:34:38.411Z,9.23
2019-04-20T11:37:17.232Z,8.83
2019-04-20T11:39:47.492Z,9.70
2019-04-20T11:42:17.664Z,6.97
2019-04-20T11:44:48.841Z,11.40
2019-04-20T11:47:21.485Z,7.00
2019-04-20T11:49:51.860Z,5.77
2019-04-20T11:52:23.738Z,9.17
2019-04-20T11:54:54.663Z,9.60
2019-04-20T11:57:27.176Z,9.93
2019-04-20T11:59:59.378Z,7.80
2019-04-20T12:02:47.789Z,9.43
2019-04-20T12:05:27.804Z,9.67
2019-04-20T12:07:55.292Z,8.70
2019-04-20T12:10:27.981Z,8.47
2019-04-20T12:12:59.500Z,5.80
2019-04-20T12:15:34.519Z,7.73
2019-04-20T12:18:03.111Z,15.03
2019-04-20T12:20:34.545Z,15.53
2019-04-20T12:23:04.825Z,7.80
2019-04-20T12:25:36.750Z,12.23
2019-04-20T12:28:07.453Z,9.67
2019-04-20T12:30:37.837Z,4.37
2019-04-20T12:33:09.159Z,4.30
2019-04-20T12:35:40.325Z,5.10
2019-04-20T12:38:10.650Z,4.83
2019-04-20T12:40:42.013Z,8.60
2019-04-20T12:43:13.196Z,5.10
2019-04-20T12:45:44.138Z,3.90
2019-04-20T12:48:15.666Z,4.70
2019-04-20T12:50:45.946Z,3.60
2019-04-20T12:53:17.042Z,5.10
2019-04-20T12:55:48.446Z,4.90
2019-04-20T12:58:20.939Z,4.57
2019-04-20T13:00:52.591Z,7.23
2019-04-20T13:03:23.594Z,6.30
2019-04-20T13:05:54.332Z,3.50
2019-04-20T13:08:30.368Z,4.83
2019-04-20T13:11:11.048Z,5.37
2019-04-20T13:13:56.606Z,8.03
2019-04-20T13:16:34.417Z,8.97
2019-04-20T13:19:17.188Z,12.53
2019-04-20T13:21:47.398Z,3.20
2019-04-20T13:24:18.777Z,3.90
2019-04-20T13:26:49.185Z,5.97
2019-04-20T13:29:19.339Z,12.73
2019-04-20T13:31:52.071Z,7.23
2019-04-20T13:34:22.470Z,5.70
2019-04-20T13:36:52.771Z,17.00
2019-04-20T13:39:22.841Z,5.30
2019-04-20T13:42:03.419Z,12.43
2019-04-20T13:44:25.614Z,5.43
2019-04-20T13:46:56.714Z,4.67
2019-04-20T13:49:27.160Z,5.63
2019-04-20T13:51:57.277Z,3.90
2019-04-20T13:54:28.212Z,4.33
2019-04-20T13:57:00.626Z,4.17
2019-04-20T13:59:39.946Z,5.30
2019-04-20T14:02:17.159Z,8.93
2019-04-20T14:04:57.002Z,5.10
2019-04-20T14:07:27.622Z,6.40
2019-04-20T14:09:59.577Z,3.83
2019-04-20T14:12:35.084Z,47.87
2019-04-20T14:15:02.848Z,16.53
2019-04-20T14:17:33.257Z,4.57
2019-04-20T14:20:13.201Z,7.63
2019-04-20T14:22:42.989Z,8.10
2019-04-20T14:25:13.316Z,5.43
2019-04-20T14:27:44.760Z,5.87
2019-04-20T14:30:17.166Z,5.47
2019-04-20T14:32:50.417Z,3.57
2019-04-20T14:35:20.848Z,5.63
2019-04-20T14:37:52.089Z,7.63
2019-04-20T14:40:22.562Z,5.70
2019-04-20T14:42:54.817Z,7.60
2019-04-20T14:45:24.780Z,7.37
2019-04-20T14:48:07.845Z,8.00
2019-04-20T14:50:38.115Z,4.63
2019-04-20T14:53:09.511Z,8.83
2019-04-20T14:55:39.717Z,11.43
2019-04-20T14:58:29.132Z,8.20
2019-04-20T15:01:04.820Z,6.63
2019-04-20T15:03:40.989Z,9.37
2019-04-20T15:06:11.818Z,5.40
2019-04-20T15:08:42.897Z,5.50
2019-04-20T15:11:14.418Z,7.80
2019-04-20T15:13:44.862Z,6.47
2019-04-20T15:16:16.963Z,7.47
2019-04-20T15:18:52.986Z,2.90
2019-04-20T15:21:23.942Z,4.23
2019-04-20T15:23:55.340Z,4.47
2019-04-20T15:26:26.597Z,4.70
2019-04-20T15:28:57.042Z,6.67
2019-04-20T15:31:28.195Z,4.57
2019-04-20T15:33:59.090Z,4.90
2019-04-20T15:36:29.447Z,3.73
2019-04-20T15:39:01.022Z,7.23
2019-04-20T15:41:33.594Z,3.87
2019-04-20T15:44:03.909Z,3.77
2019-04-20T15:46:37.110Z,5.33
2019-04-20T15:49:08.347Z,5.67
2019-04-20T15:51:39.778Z,4.37
2019-04-20T15:54:11.412Z,4.57
2019-04-20T15:56:49.657Z,5.60
2019-04-20T15:59:14.659Z,3.57
2019-04-20T16:01:49.590Z,5.80
2019-04-20T16:04:41.192Z,7.33
2019-04-20T16:07:10.891Z,5.07
2019-04-20T16:09:42.150Z,8.83
2019-04-20T16:12:13.046Z,8.77
2019-04-20T16:14:43.852Z,6.83
2019-04-20T16:17:15.200Z,6.97
2019-04-20T16:19:54.509Z,4.10
2019-04-20T16:22:19.785Z,7.40
2019-04-20T16:24:56.089Z,8.53
2019-04-20T16:27:38.042Z,9.17
2019-04-20T16:30:09.805Z,8.57
2019-04-20T16:32:40.681Z,5.13
2019-04-20T16:35:12.246Z,5.50
2019-04-20T16:37:42.480Z,6.27
2019-04-20T16:40:13.942Z,14.83
2019-04-20T16:42:45.483Z,9.57
2019-04-20T16:45:17.239Z,6.13
2019-04-20T16:47:48.241Z,8.77
2019-04-20T16:50:19.326Z,8.27
2019-04-20T16:52:50.680Z,6.87
2019-04-20T16:55:20.967Z,7.40
2019-04-20T16:57:53.000Z,6.63
2019-04-20T17:00:23.416Z,11.03
2019-04-20T17:02:54.363Z,15.63
2019-04-20T17:05:25.572Z,10.17
2019-04-20T17:07:57.393Z,18.87
2019-04-20T17:10:28.861Z,6.47
2019-04-20T17:12:59.950Z,4.70
2019-04-20T17:15:30.206Z,6.83
2019-04-20T17:18:01.518Z,4.63
2019-04-20T17:20:32.963Z,4.90
2019-04-20T17:23:05.564Z,5.87
2019-04-20T17:25:35.866Z,6.67
2019-04-20T17:28:23.078Z,7.27
2019-04-20T17:31:15.659Z,4.97
2019-04-20T17:34:25.286Z,7.40
2019-04-20T17:36:40.464Z,6.63
2019-04-20T17:39:15.470Z,9.70
2019-04-20T17:42:03.015Z,5.83
2019-04-20T17:44:32.663Z,12.73
2019-04-20T17:47:00.599Z,8.80
2019-04-20T17:49:36.872Z,9.30
2019-04-20T17:52:22.615Z,11.07
2019-04-20T17:54:35.606Z,9.60
2019-04-20T17:57:09.015Z,12.53
2019-04-20T17:59:46.747Z,13.73
2019-04-20T18:02:53.466Z,14.47
2019-04-20T18:05:37.012Z,19.20
2019-04-20T18:08:10.223Z,13.93
2019-04-20T18:10:36.458Z,14.00
2019-04-20T18:12:56.537Z,15.90
2019-04-20T18:15:42.351Z,14.57
2019-04-20T18:18:32.075Z,13.70
2019-04-20T18:20:57.171Z,14.47
2019-04-20T18:23:34.431Z,11.47
2019-04-20T18:26:22.687Z,12.47
2019-04-20T18:28:58.064Z,12.97
2019-04-20T18:31:25.773Z,12.07
2019-04-20T18:34:06.992Z,14.97
2019-04-20T18:36:37.896Z,14.63
2019-04-20T18:39:10.262Z,14.20
2019-04-20T18:41:48.045Z,12.40
2019-04-20T18:44:12.928Z,10.37
2019-04-20T18:47:07.039Z,15.30
2019-04-20T18:49:27.170Z,11.23
2019-04-20T18:51:48.025Z,12.23
2019-04-20T18:54:23.494Z,9.87
2019-04-20T18:56:52.572Z,13.33
2019-04-20T18:59:24.393Z,12.30
2019-04-20T19:01:55.009Z,11.30
2019-04-20T19:04:25.919Z,15.53
2019-04-20T19:06:57.355Z,14.47
2019-04-20T19:09:30.429Z,17.13
2019-04-20T19:12:03.966Z,14.97
2019-04-20T19:14:51.720Z,15.33
2019-04-20T19:17:53.515Z,13.67
2019-04-20T19:20:23.367Z,14.73
2019-04-20T19:22:53.546Z,19.83
2019-04-20T19:25:30.524Z,19.73
2019-04-20T19:27:57.753Z,24.67
2019-04-20T19:30:35.481Z,26.97
2019-04-20T19:33:14.965Z,20.17
2019-04-20T19:35:41.713Z,18.10
2019-04-20T19:38:10.376Z,18.73
2019-04-20T19:40:47.778Z,16.27
2019-04-20T19:43:17.133Z,14.90
2019-04-20T19:46:07.171Z,17.73
2019-04-20T19:48:25.443Z,14.63
2019-04-20T19:51:05.815Z,13.60
2019-04-20T19:53:36.427Z,18.47
2019-04-20T19:55:59.055Z,19.23
2019-04-20T19:58:33.118Z,31.90
2019-04-20T20:00:54.210Z,42.83
2019-04-20T20:03:23.966Z,38.27
2019-04-20T20:05:56.477Z,43.33
2019-04-20T20:08:29.944Z,49.23
2019-04-20T20:11:01.336Z,36.63
2019-04-20T20:13:34.567Z,26.77
2019-04-20T20:16:10.540Z,30.60
2019-04-20T20:18:50.931Z,32.83
2019-04-20T20:21:22.596Z,30.93
2019-04-20T20:23:41.809Z,28.87
2019-04-20T20:26:20.703Z,25.83
2019-04-20T20:28:50.739Z,21.83
2019-04-20T20:31:23.372Z,26.77
2019-04-20T20:33:59.000Z,29.00
2019-04-20T20:36:23.280Z,28.27
2019-04-20T20:38:53.844Z,23.10
2019-04-20T20:41:28.960Z,21.27
2019-04-20T20:44:03.655Z,23.57
2019-04-20T20:46:34.872Z,19.90
2019-04-20T20:49:16.159Z,24.80
2019-04-20T20:52:02.472Z,23.50
2019-04-20T20:54:15.496Z,27.10
2019-04-20T20:56:46.688Z,20.23
2019-04-20T20:59:14.094Z,19.77
2019-04-20T21:01:50.388Z,15.83
2019-04-20T21:04:12.754Z,17.03
2019-04-20T21:06:42.857Z,18.20
2019-04-20T21:09:14.329Z,17.70
2019-04-20T21:11:46.382Z,19.67
2019-04-20T21:14:24.320Z,18.37
2019-04-20T21:16:58.592Z,27.23
2019-04-20T21:19:34.290Z,29.43
2019-04-20T21:22:00.004Z,28.90
2019-04-20T21:24:28.788Z,29.60
2019-04-20T21:27:06.737Z,33.93
2019-04-20T21:29:37.836Z,29.57
2019-04-20T21:32:08.663Z,23.23
2019-04-20T21:34:35.543Z,26.13
2019-04-20T21:37:11.844Z,28.23
2019-04-20T21:39:44.692Z,22.33
2019-04-20T21:42:15.914Z,20.17
2019-04-20T21:44:45.347Z,18.00
2019-04-20T21:47:21.843Z,17.13
2019-04-20T21:50:03.120Z,18.90
2019-04-20T21:52:29.908Z,17.87
2019-04-20T21:54:54.461Z,15.07
2019-04-20T21:57:26.009Z,18.20
2019-04-20T22:00:02.599Z,15.00
2019-04-20T22:02:32.735Z,18.47
2019-04-20T22:05:01.200Z,19.40
2019-04-20T22:07:32.889Z,17.23
2019-04-20T22:10:03.006Z,21.07
2019-04-20T22:12:39.687Z,19.53
2019-04-20T22:15:17.028Z,21.43
2019-04-20T22:17:40.798Z,19.53
2019-04-20T22:20:20.041Z,17.47
2019-04-20T22:23:01.127Z,18.57
2019-04-20T22:25:33.220Z,17.33
2019-04-20T22:27:48.295Z,17.73
2019-04-20T22:30:19.935Z,13.97
2019-04-20T22:32:53.234Z,14.30
2019-04-20T22:35:24.393Z,16.77
2019-04-20T22:38:07.011Z,15.73
2019-04-20T22:40:36.401Z,13.33
2019-04-20T22:43:06.485Z,14.50
2019-04-20T22:45:42.195Z,12.53
2019-04-20T22:48:12.431Z,15.27
2019-04-20T22:51:03.598Z,23.30
2019-04-20T22:53:29.864Z,16.63
2019-04-20T22:56:11.082Z,18.77
2019-04-20T22:58:28.710Z,17.90
2019-04-20T23:00:54.351Z,17.87
2019-04-20T23:03:20.932Z,14.60
2019-04-20T23:05:51.065Z,16.27
2019-04-20T23:08:22.423Z,15.60
2019-04-20T23:10:53.546Z,15.30
2019-04-20T23:13:29.445Z,13.80
2019-04-20T23:16:00.153Z,14.50
2019-04-20T23:18:28.456Z,15.57
2019-04-20T23:21:01.320Z,13.60
2019-04-20T23:23:31.007Z,14.53
2019-04-20T23:26:03.089Z,11.97
2019-04-20T23:28:33.421Z,15.33
2019-04-20T23:31:07.325Z,15.37
2019-04-20T23:33:36.087Z,13.77
2019-04-20T23:36:07.843Z,17.40
2019-04-20T23:38:38.979Z,14.17
2019-04-20T23:41:10.057Z,13.47
2019-04-20T23:43:45.287Z,16.77
2019-04-20T23:46:47.414Z,14.40
2019-04-20T23:49:32.701Z,14.23
2019-04-20T23:52:26.097Z,12.70
2019-04-20T23:54:33.654Z,12.03
2019-04-20T23:57:02.037Z,12.53
2019-04-20T23:59:39.245Z,12.53
